ADDS METAR Data

Data at: 1832 UTC 20 Jul 2018

METAR for:KIZG (Fryeburg/Eastern Slo, ME, US)
Text:KIZG 201754Z AUTO 11010KT 10SM CLR 31/12 A3016 RMK AO2 SLP212 T03060122 10306 20178 58013
Temperature: 30.6°C ( 87°F)
Dewpoint: 12.2°C ( 54°F) [RH = 32%]
Pressure (altimeter):30.16 inches Hg (1021.4 mb) [Sea level pressure: 1021.2 mb]
Winds:from the ESE (110 degrees) at 12 MPH (10 knots; 5.1 m/s)
Visibility:10 or more sm (16+ km)
Ceiling:at least 12,000 feet AGL
Clouds:sky clear below 12,000 feet AGL
QC Flag:automated observation with no human augmentation